Time;durP1;ratioP1;P1;durP2;ratioP2;P2;SDS_P1;SDS_P2;PMS_P1;PMS_P2;Temp;Humidity;BMP_temperature;BMP_pressure;BME280_temperature;BME280_humidity;BME280_pressure;Samples;Min_cycle;Max_cycle;Signal;HPM_P1;HPM_P2
2022/11/22 00:00:52;;;;;;;4.73;3.43;;;;;;;-141.28;100.00;50522.56;5113479;28;20441;-77
2022/11/22 00:03:19;;;;;;;4.90;3.40;;;;;;;-141.28;100.00;50499.00;5118185;28;20449;-73
2022/11/22 00:05:48;;;;;;;3.87;3.10;;;;;;;-141.28;100.00;50520.59;5125925;28;20483;-72
2022/11/22 00:08:15;;;;;;;6.17;3.97;;;;;;;-141.28;100.00;50522.56;5127249;28;20516;-72
2022/11/22 00:10:44;;;;;;;5.33;3.97;;;;;;;-141.28;100.00;50502.94;5127975;28;20449;-71
2022/11/22 00:13:11;;;;;;;5.83;4.13;;;;;;;-141.28;100.00;50477.44;5109703;28;20448;-72
2022/11/22 00:15:38;;;;;;;6.43;4.27;;;;;;;-141.28;100.00;50518.66;5124106;28;20472;-73
2022/11/22 00:18:06;;;;;;;5.47;4.07;;;;;;;-141.28;100.00;50475.47;5126523;28;20453;-74
2022/11/22 00:20:34;;;;;;;6.03;4.47;;;;;;;-141.28;100.00;50487.25;5132011;28;20475;-74
2022/11/22 00:23:01;;;;;;;6.47;4.47;;;;;;;-141.28;100.00;50506.88;5119811;28;20502;-74
2022/11/22 00:25:27;;;;;;;6.73;4.63;;;;;;;-141.28;100.00;50463.69;5115234;28;20529;-75
2022/11/22 00:27:56;;;;;;;6.43;4.40;;;;;;;-141.28;100.00;50512.75;5119367;28;20471;-74
2022/11/22 00:30:25;;;;;;;6.30;4.57;;;;;;;-141.28;100.00;50512.75;5120935;28;20955;-76
2022/11/22 00:32:53;;;;;;;6.27;4.33;;;;;;;-141.28;100.00;50475.47;5125146;28;20444;-74
2022/11/22 00:35:20;;;;;;;6.33;4.37;;;;;;;-141.28;100.00;50475.47;5124917;28;20921;-75
2022/11/22 00:37:47;;;;;;;5.47;4.10;;;;;;;-141.28;100.00;50471.53;5114485;28;20444;-75
2022/11/22 00:40:15;;;;;;;4.87;3.87;;;;;;;-141.28;100.00;50471.53;5113302;28;20444;-75
2022/11/22 00:42:42;;;;;;;4.97;3.60;;;;;;;-141.28;100.00;50440.13;5113174;28;20462;-74
2022/11/22 00:45:11;;;;;;;10.57;5.00;;;;;;;-141.28;100.00;50447.97;5113160;28;20440;-75
2022/11/22 00:47:39;;;;;;;4.77;3.67;;;;;;;-141.28;100.00;50359.66;5113461;28;20973;-75
2022/11/22 00:50:09;;;;;;;5.90;3.70;;;;;;;-141.28;100.00;50424.44;5114322;28;20448;-76
2022/11/22 00:52:37;;;;;;;11.47;5.77;;;;;;;-141.28;100.00;50343.94;5112392;28;20883;-77
2022/11/22 00:55:05;;;;;;;4.10;3.13;;;;;;;-141.28;100.00;50391.06;5112826;28;20536;-76
2022/11/22 00:57:32;;;;;;;5.37;4.03;;;;;;;-141.28;100.00;50377.31;5112523;28;20502;-75
2022/11/22 00:59:59;;;;;;;5.23;3.33;;;;;;;-141.28;100.00;50373.38;5113874;28;20453;-78
2022/11/22 01:02:27;;;;;;;3.80;3.37;;;;;;;-141.28;100.00;50404.81;5111878;28;20448;-76
2022/11/22 01:04:54;;;;;;;5.63;3.60;;;;;;;-141.28;100.00;50359.66;5112137;28;20517;-76
2022/11/22 01:07:20;;;;;;;4.60;3.83;;;;;;;-141.28;100.00;50416.56;5111772;28;20543;-75
2022/11/22 01:09:48;;;;;;;5.03;3.43;;;;;;;-141.28;100.00;50408.72;5111695;28;20505;-75
2022/11/22 01:12:15;;;;;;;4.00;3.60;;;;;;;-141.28;100.00;50353.75;5094838;28;20465;-76
2022/11/22 01:14:42;;;;;;;3.93;3.40;;;;;;;-141.28;100.00;50400.88;5111851;28;20441;-74
2022/11/22 01:17:09;;;;;;;5.00;3.87;;;;;;;-141.28;100.00;50408.72;5114960;28;20465;-74
2022/11/22 01:19:37;;;;;;;4.57;4.00;;;;;;;-141.28;100.00;50394.97;5117656;28;20527;-74
2022/11/22 01:22:04;;;;;;;4.73;3.73;;;;;;;-141.28;100.00;50377.31;5116678;28;20549;-75
2022/11/22 01:24:31;;;;;;;5.30;4.30;;;;;;;-141.28;100.00;50385.16;5102450;28;20440;-78
2022/11/22 01:26:58;;;;;;;5.23;4.13;;;;;;;-141.28;100.00;50408.72;5115881;28;20492;-76
2022/11/22 01:29:25;;;;;;;5.63;4.30;;;;;;;-141.28;100.00;50400.88;5114532;28;20875;-77
2022/11/22 01:31:52;;;;;;;5.13;4.60;;;;;;;-141.28;100.00;50449.94;5115404;28;20445;-77
2022/11/22 01:34:19;;;;;;;6.27;4.60;;;;;;;-141.28;100.00;50495.09;5102024;28;20844;-76
2022/11/22 01:36:47;;;;;;;5.30;4.30;;;;;;;-141.28;100.00;50430.31;5115388;28;20452;-76
2022/11/22 01:39:14;;;;;;;5.10;3.93;;;;;;;-141.28;100.00;50502.94;5115819;28;20449;-75
2022/11/22 01:41:42;;;;;;;6.83;5.07;;;;;;;-141.28;100.00;50499.00;5115684;28;20491;-76
2022/11/22 01:44:29;;;;;;;6.13;4.50;;;;;;;-141.28;100.00;50510.78;5115779;28;20505;-77
2022/11/22 01:46:59;;;;;;;7.20;4.10;;;;;;;-141.28;100.00;50483.31;5102051;28;20488;-76
2022/11/22 01:49:31;;;;;;;4.90;4.20;;;;;;;-141.28;100.00;50459.75;5115168;28;21021;-77
2022/11/22 01:52:05;;;;;;;5.77;4.53;;;;;;;-141.28;100.00;50455.84;5115127;28;20455;-74
2022/11/22 01:54:36;;;;;;;7.13;4.37;;;;;;;-141.28;100.00;50467.59;5115399;28;20865;-76
2022/11/22 01:57:06;;;;;;;6.40;4.87;;;;;;;-141.28;100.00;50467.59;5115453;28;20456;-76
2022/11/22 01:59:37;;;;;;;6.30;4.40;;;;;;;-141.28;100.00;50491.16;5115626;28;20870;-79
2022/11/22 02:02:05;;;;;;;5.87;4.57;;;;;;;-141.28;100.00;50479.38;5115490;28;20441;-76
2022/11/22 02:04:36;;;;;;;5.90;4.60;;;;;;;-141.28;100.00;50483.31;5115040;28;20440;-78
2022/11/22 02:07:12;;;;;;;5.87;4.60;;;;;;;-141.28;100.00;50463.69;5115237;28;20513;-78
2022/11/22 02:09:42;;;;;;;7.20;5.13;;;;;;;-141.28;100.00;50469.56;5102232;28;20453;-76
2022/11/22 02:12:11;;;;;;;5.90;4.80;;;;;;;-141.28;100.00;50434.25;5113614;28;20449;-75
2022/11/22 02:14:40;;;;;;;7.60;5.43;;;;;;;-141.28;100.00;50438.16;5115110;28;20979;-76
2022/11/22 02:17:07;;;;;;;5.80;4.47;;;;;;;-141.28;100.00;50434.25;5114844;28;20473;-75
2022/11/22 02:19:40;;;;;;;5.03;4.47;;;;;;;-141.28;100.00;50424.44;5115315;28;20444;-75
2022/11/22 02:22:19;;;;;;;9.80;6.00;;;;;;;-141.28;100.00;50479.38;5113661;28;20881;-74
2022/11/22 02:24:53;;;;;;;11.17;6.50;;;;;;;-141.28;100.00;50393.03;5115104;28;20869;-75
2022/11/22 02:27:23;;;;;;;10.47;7.00;;;;;;;-141.28;100.00;50463.69;5114934;28;20492;-74
2022/11/22 02:29:50;;;;;;;6.40;4.87;;;;;;;-141.28;100.00;50510.78;5114369;28;20533;-76
2022/11/22 02:32:18;;;;;;;6.90;4.87;;;;;;;-141.28;100.00;50542.19;5115585;28;20452;-74
2022/11/22 02:34:48;;;;;;;6.87;5.07;;;;;;;-141.28;100.00;50400.88;5117026;28;21036;-78
2022/11/22 02:37:18;;;;;;;6.90;4.63;;;;;;;-141.28;100.00;50451.91;5116895;28;20518;-74
2022/11/22 02:39:48;;;;;;;8.47;5.67;;;;;;;-141.28;100.00;50663.91;5118172;28;20517;-74
2022/11/22 02:42:15;;;;;;;9.03;5.07;;;;;;;-141.28;100.00;50667.81;5116691;28;20880;-75
2022/11/22 02:44:44;;;;;;;6.97;4.93;;;;;;;-141.28;100.00;50565.75;5116773;28;20525;-75
2022/11/22 02:47:11;;;;;;;6.87;4.20;;;;;;;-141.28;100.00;50722.78;5115375;28;20508;-77
2022/11/22 02:49:38;;;;;;;6.03;4.57;;;;;;;-141.28;100.00;50765.97;5114083;28;20441;-75
2022/11/22 02:52:05;;;;;;;6.33;4.50;;;;;;;-141.28;100.00;50801.31;5102308;28;20526;-75
2022/11/22 02:54:32;;;;;;;6.77;4.90;;;;;;;-141.28;100.00;50805.25;5112076;28;20852;-78
2022/11/22 02:56:59;;;;;;;8.10;5.00;;;;;;;-141.28;100.00;50828.78;5114668;28;20924;-76
2022/11/22 02:59:27;;;;;;;6.77;4.97;;;;;;;-141.28;100.00;50820.94;5113207;28;20489;-76
2022/11/22 03:01:55;;;;;;;5.90;4.10;;;;;;;-141.28;100.00;50822.91;5113924;28;21027;-76
2022/11/22 03:04:25;;;;;;;7.87;4.70;;;;;;;-141.28;100.00;50870.03;5113446;28;20497;-76
2022/11/22 03:06:54;;;;;;;6.70;4.60;;;;;;;-141.28;100.00;50746.34;5113978;28;20491;-78
2022/11/22 03:09:22;;;;;;;6.70;5.00;;;;;;;-141.28;100.00;50809.16;5113415;28;20448;-77
2022/11/22 03:11:49;;;;;;;5.90;4.90;;;;;;;-141.28;100.00;50846.47;5113381;28;20452;-75
2022/11/22 03:14:16;;;;;;;6.70;4.50;;;;;;;-141.28;100.00;50858.25;5113883;28;20453;-78
2022/11/22 03:16:44;;;;;;;7.83;4.90;;;;;;;-141.28;100.00;50868.06;5113691;28;20580;-79
2022/11/22 03:19:14;;;;;;;10.00;5.53;;;;;;;-141.28;100.00;50848.44;5115111;28;20440;-78
2022/11/22 03:21:42;;;;;;;8.20;5.67;;;;;;;-141.28;100.00;50913.22;5108550;28;20477;-75
2022/11/22 03:24:11;;;;;;;6.77;5.10;;;;;;;-141.28;100.00;50958.38;5113540;28;20448;-77
2022/11/22 03:26:38;;;;;;;6.77;5.07;;;;;;;-141.28;100.00;50960.31;5113077;28;20480;-76
2022/11/22 03:29:05;;;;;;;8.23;5.27;;;;;;;-141.28;100.00;50950.50;5113594;28;20861;-77
2022/11/22 03:31:32;;;;;;;7.57;5.03;;;;;;;-141.28;100.00;50962.28;5113182;28;20453;-77
2022/11/22 03:33:59;;;;;;;7.63;5.13;;;;;;;-141.28;100.00;51036.88;5113248;28;20445;-75
2022/11/22 03:36:28;;;;;;;6.63;4.53;;;;;;;-141.28;100.00;51040.81;5109948;28;20453;-77
2022/11/22 03:38:54;;;;;;;6.93;4.90;;;;;;;-141.28;100.00;51093.81;5103102;28;20489;-78
2022/11/22 03:41:21;;;;;;;8.27;5.10;;;;;;;-141.28;100.00;50989.78;5112556;28;20452;-79
2022/11/22 03:43:49;;;;;;;7.33;5.23;;;;;;;-141.28;100.00;51103.63;5113557;28;20474;-77
2022/11/22 03:46:18;;;;;;;9.53;5.80;;;;;;;-141.28;100.00;51170.38;5112449;28;20476;-75
2022/11/22 03:48:45;;;;;;;7.67;5.00;;;;;;;-141.28;100.00;51239.09;5100831;28;20501;-77
2022/11/22 03:51:13;;;;;;;7.57;5.10;;;;;;;-141.28;100.00;51217.50;5112839;28;20451;-77
2022/11/22 03:53:41;;;;;;;6.93;4.93;;;;;;;-141.28;100.00;51351.00;5112946;28;20452;-74
2022/11/22 03:56:08;;;;;;;7.87;5.07;;;;;;;-141.28;100.00;51358.88;5112997;28;20510;-76
2022/11/22 03:58:35;;;;;;;6.67;5.03;;;;;;;-141.28;100.00;51364.75;5113411;28;20524;-76
2022/11/22 04:01:02;;;;;;;5.93;4.47;;;;;;;-141.28;100.00;51390.28;5112365;28;20450;-76
2022/11/22 04:03:29;;;;;;;8.17;5.33;;;;;;;-141.28;100.00;51292.13;5112700;28;20453;-77
2022/11/22 04:05:57;;;;;;;8.37;5.40;;;;;;;-141.28;100.00;51388.31;5112510;28;20449;-76
2022/11/22 04:08:25;;;;;;;9.43;5.90;;;;;;;-141.28;100.00;51347.09;5112502;28;20444;-79
2022/11/22 04:10:53;;;;;;;6.93;4.90;;;;;;;-141.28;100.00;51335.31;5100565;28;20572;-75
2022/11/22 04:15:05;;;;;;;8.27;6.00;;;;;;;-141.28;100.00;51327.44;5111441;28;20441;-75
2022/11/22 04:16:09;;;;;;;6.63;5.03;;;;;;;-141.28;100.00;51331.38;5112679;28;20464;-74
2022/11/22 04:18:36;;;;;;;7.47;5.37;;;;;;;-141.28;100.00;51366.72;5112118;28;20445;-78
2022/11/22 04:25:12;;;;;;;6.67;4.53;;;;;;;-141.28;100.00;51372.59;5111954;28;21543;-78
2022/11/22 04:26:35;;;;;;;7.07;5.10;;;;;;;-141.28;100.00;51315.66;5112081;28;20571;-76
2022/11/22 04:29:03;;;;;;;8.13;5.07;;;;;;;-141.28;100.00;51374.56;5111928;28;20472;-76
2022/11/22 04:34:14;;;;;;;10.60;5.97;;;;;;;-141.28;100.00;51382.44;5112269;28;20423;-78
2022/11/22 04:36:41;;;;;;;10.80;6.00;;;;;;;-141.28;100.00;51402.06;5111856;28;20514;-79
2022/11/22 04:39:10;;;;;;;9.90;6.33;;;;;;;-141.28;100.00;51441.31;5112118;28;20464;-75
2022/11/22 04:41:38;;;;;;;13.17;8.90;;;;;;;-141.28;100.00;51466.84;5117346;28;20440;-74
2022/11/22 04:46:51;;;;;;;14.47;9.63;;;;;;;-141.28;100.00;51384.38;5111112;28;20858;-75
2022/11/22 04:49:18;;;;;;;12.93;8.33;;;;;;;-141.28;100.00;51407.94;5100144;28;20449;-76
2022/11/22 04:54:29;;;;;;;8.30;5.80;;;;;;;-141.28;100.00;51527.72;5111795;28;21081;-75
2022/11/22 04:56:58;;;;;;;8.93;6.10;;;;;;;-141.28;100.00;51621.97;5113310;28;20467;-76
2022/11/22 04:59:25;;;;;;;10.27;6.30;;;;;;;-141.28;100.00;51704.44;5113810;28;20494;-75
2022/11/22 05:01:53;;;;;;;7.67;5.87;;;;;;;-141.28;100.00;51728.00;5111747;28;20453;-76
2022/11/22 05:04:21;;;;;;;9.37;5.37;;;;;;;-141.28;100.00;51765.31;5114946;28;20455;-76
2022/11/22 05:06:50;;;;;;;9.97;5.77;;;;;;;-141.28;100.00;51767.28;5116712;28;20497;-74
2022/11/22 05:09:20;;;;;;;8.07;5.73;;;;;;;-141.28;100.00;51773.16;5117463;28;20597;-75
2022/11/22 05:11:49;;;;;;;7.07;5.40;;;;;;;-141.28;100.00;51790.84;5115837;28;20466;-76
2022/11/22 05:14:17;;;;;;;8.50;5.77;;;;;;;-141.28;100.00;51659.28;5112319;28;20459;-75
2022/11/22 05:16:45;;;;;;;8.37;4.93;;;;;;;-141.28;100.00;51822.25;5111901;28;20475;-78
2022/11/22 05:19:11;;;;;;;8.27;6.03;;;;;;;-141.28;100.00;51786.91;5112026;28;20442;-75
2022/11/22 05:21:38;;;;;;;9.70;5.97;;;;;;;-141.28;100.00;51802.63;5110104;28;21013;-74
2022/11/22 05:24:05;;;;;;;6.90;5.00;;;;;;;-141.28;100.00;51794.75;5110356;28;20502;-74
2022/11/22 05:26:34;;;;;;;5.93;4.60;;;;;;;-141.28;100.00;51739.78;5110683;28;20831;-77
2022/11/22 05:29:05;;;;;;;7.30;5.13;;;;;;;-141.28;100.00;51749.59;5110735;28;20488;-75
2022/11/22 05:31:35;;;;;;;8.53;5.93;;;;;;;-141.28;100.00;51830.09;5110755;28;20816;-75
2022/11/22 05:34:02;;;;;;;10.50;7.17;;;;;;;-141.28;100.00;51857.59;5097744;28;20833;-77
2022/11/22 05:36:32;;;;;;;7.70;5.20;;;;;;;-141.28;100.00;51863.50;5110846;28;20449;-74
2022/11/22 05:38:59;;;;;;;7.87;5.63;;;;;;;-141.28;100.00;51849.75;5110667;28;20448;-76
2022/11/22 05:41:27;;;;;;;6.97;5.00;;;;;;;-141.28;100.00;51824.22;5112369;28;20464;-75
2022/11/22 05:43:56;;;;;;;10.50;5.90;;;;;;;-141.28;100.00;51828.16;5110792;28;20449;-76
2022/11/22 05:46:25;;;;;;;8.33;5.67;;;;;;;-141.28;100.00;51841.88;5109118;28;20445;-75
2022/11/22 05:48:55;;;;;;;8.80;5.87;;;;;;;-141.28;100.00;51830.09;5099420;28;20867;-74
2022/11/22 05:51:24;;;;;;;13.07;7.03;;;;;;;-141.28;100.00;52321.06;5110526;28;20472;-75
2022/11/22 05:53:51;;;;;;;12.87;8.37;;;;;;;-141.28;100.00;52662.81;5110270;28;20527;-75
2022/11/22 05:56:19;;;;;;;26.13;15.40;;;;;;;-141.28;100.00;52537.09;5109919;28;20445;-78
2022/11/22 05:58:47;;;;;;;29.27;13.70;;;;;;;-141.28;100.00;52503.72;5111982;28;20453;-79
2022/11/22 06:01:16;;;;;;;45.17;22.33;;;;;;;-141.28;100.00;52431.03;5113667;28;20827;-76
2022/11/22 06:03:43;;;;;;;189.07;82.73;;;;;;;-141.28;100.00;52171.81;5113478;28;20452;-77
2022/11/22 06:06:12;;;;;;;74.27;38.07;;;;;;;-141.28;100.00;51806.53;5113321;28;21027;-77
2022/11/22 06:08:42;;;;;;;10.70;6.67;;;;;;;-141.28;100.00;51362.78;5115235;28;21004;-76
2022/11/22 06:11:13;;;;;;;10.27;5.53;;;;;;;-141.28;100.00;51084.00;5116304;28;20451;-75
2022/11/22 06:13:42;;;;;;;12.30;6.00;;;;;;;-141.28;100.00;51217.50;5125126;28;20479;-75
2022/11/22 06:16:09;;;;;;;16.63;6.40;;;;;;;-141.28;100.00;51299.97;5130438;28;20514;-75
2022/11/22 06:18:37;;;;;;;10.30;7.70;;;;;;;-141.28;100.00;51260.69;5130004;28;20448;-75
2022/11/22 06:21:06;;;;;;;15.33;8.77;;;;;;;-141.28;100.00;51657.31;5077425;28;1388249;-73
2022/11/22 06:23:34;;;;;;;11.90;7.87;;;;;;;-141.28;100.00;51881.16;5135218;28;20263;-74
2022/11/22 06:26:03;;;;;;;12.87;8.00;;;;;;;-141.28;100.00;51894.91;5129045;28;20963;-74
2022/11/22 06:28:31;;;;;;;11.37;8.50;;;;;;;-141.28;100.00;51875.28;5124772;28;20484;-76
2022/11/22 06:31:01;;;;;;;14.30;9.77;;;;;;;-141.28;100.00;51841.88;5117629;28;20440;-77
2022/11/22 06:33:28;;;;;;;16.73;11.23;;;;;;;-141.28;100.00;51892.94;5119729;28;20456;-75
2022/11/22 06:36:00;;;;;;;24.37;18.27;;;;;;;-141.28;100.00;52148.25;5115258;28;20483;-77
2022/11/22 06:38:27;;;;;;;24.63;19.40;;;;;;;-141.28;100.00;52431.03;5114709;28;20878;-75
2022/11/22 06:41:00;;;;;;;19.67;15.67;;;;;;;-141.28;100.00;52474.25;5114829;28;20448;-75
2022/11/22 06:43:28;;;;;;;18.00;13.27;;;;;;;-141.28;100.00;52405.50;5114527;28;20486;-76
2022/11/22 06:45:56;;;;;;;14.77;8.90;;;;;;;-141.28;100.00;52407.47;5114828;28;20505;-75
2022/11/22 06:48:23;;;;;;;15.17;10.50;;;;;;;-141.28;100.00;52391.75;5114024;28;20484;-77
2022/11/22 06:50:50;;;;;;;15.63;11.20;;;;;;;-141.28;100.00;52270.00;5113968;28;20453;-78
2022/11/22 06:53:17;;;;;;;18.30;12.30;;;;;;;-141.28;100.00;51987.22;5114252;28;20528;-75
2022/11/22 06:55:43;;;;;;;16.30;10.47;;;;;;;-141.28;100.00;51747.63;5113943;28;20453;-77
2022/11/22 06:58:12;;;;;;;14.63;9.47;;;;;;;-141.28;100.00;51578.78;5113659;28;20879;-76
2022/11/22 07:00:39;;;;;;;14.30;9.13;;;;;;;-141.28;100.00;51492.38;5113662;28;21009;-74
2022/11/22 07:03:06;;;;;;;15.97;8.20;;;;;;;-141.28;100.00;51394.22;5112276;28;20971;-77
2022/11/22 07:05:33;;;;;;;14.70;7.03;;;;;;;-141.28;100.00;51439.38;5113512;28;20610;-75
2022/11/22 07:08:00;;;;;;;8.27;6.53;;;;;;;-141.28;100.00;51527.72;5113482;28;20488;-77
2022/11/22 07:10:28;;;;;;;8.50;6.67;;;;;;;-141.28;100.00;51500.22;5112658;28;20871;-77
2022/11/22 07:12:55;;;;;;;8.33;6.53;;;;;;;-141.28;100.00;51565.03;5100913;28;20884;-75
2022/11/22 07:15:23;;;;;;;10.53;6.83;;;;;;;-141.28;100.00;51466.84;5113113;28;20935;-77
2022/11/22 07:17:50;;;;;;;11.93;7.90;;;;;;;-141.28;100.00;51186.09;5113606;28;20452;-77
2022/11/22 07:20:17;;;;;;;11.57;8.53;;;;;;;-141.28;100.00;51138.97;5112066;28;20476;-75
2022/11/22 07:22:47;;;;;;;9.90;7.70;;;;;;;-141.28;100.00;50730.66;5112888;28;20919;-78
2022/11/22 07:25:14;;;;;;;12.53;8.03;;;;;;;-141.28;100.00;50644.28;5113103;28;20506;-77
2022/11/22 07:27:41;;;;;;;11.13;7.97;;;;;;;-141.28;100.00;50679.59;5104993;28;20534;-75
2022/11/22 07:30:10;;;;;;;17.73;9.43;;;;;;;-141.28;100.00;50773.81;5108028;28;20448;-74
2022/11/22 07:32:38;;;;;;;12.73;8.63;;;;;;;-141.28;100.00;50687.47;5113501;28;20444;-76
2022/11/22 07:35:06;;;;;;;17.97;9.07;;;;;;;-141.28;100.00;50587.34;5115284;28;20433;-75
2022/11/22 07:37:33;;;;;;;14.77;8.63;;;;;;;-141.28;100.00;50400.88;5113036;28;20510;-75
2022/11/22 07:40:01;;;;;;;14.07;9.37;;;;;;;-141.28;100.00;50283.09;5112831;28;20609;-76
2022/11/22 07:42:28;;;;;;;14.17;9.83;;;;;;;-141.28;100.00;50208.53;5102641;28;20456;-75
2022/11/22 07:44:54;;;;;;;19.03;12.00;;;;;;;-141.28;100.00;50340.03;5108737;28;20464;-76
2022/11/22 07:47:21;;;;;;;19.70;12.77;;;;;;;-141.28;100.00;50345.91;5112663;28;20472;-77
2022/11/22 07:49:49;;;;;;;17.77;11.90;;;;;;;-141.28;100.00;50398.91;5112636;28;20448;-75
2022/11/22 07:52:16;;;;;;;16.90;10.80;;;;;;;-141.28;100.00;50334.13;5111765;28;20970;-79
2022/11/22 07:54:44;;;;;;;15.40;10.87;;;;;;;-141.28;100.00;50347.88;5112621;28;20912;-75
2022/11/22 07:57:11;;;;;;;16.17;10.90;;;;;;;-141.28;100.00;50322.34;5101798;28;20545;-77
2022/11/22 07:59:38;;;;;;;13.47;9.40;;;;;;;-141.28;100.00;50294.88;5111159;28;20493;-78
2022/11/22 08:02:05;;;;;;;13.67;8.67;;;;;;;-141.28;100.00;50345.91;5114605;28;20468;-75
2022/11/22 08:04:32;;;;;;;12.77;8.63;;;;;;;-141.28;100.00;50400.88;5117158;28;20829;-76
2022/11/22 08:07:02;;;;;;;18.77;11.33;;;;;;;-141.28;100.00;50463.69;5112278;28;20452;-74
2022/11/22 08:09:30;;;;;;;23.77;15.50;;;;;;;-141.28;100.00;50489.19;5111828;28;20455;-74
2022/11/22 08:11:57;;;;;;;23.30;12.03;;;;;;;-141.28;100.00;50565.75;5111821;28;20453;-75
2022/11/22 08:14:25;;;;;;;16.07;11.57;;;;;;;-141.28;100.00;50675.69;5111544;28;20823;-75
2022/11/22 08:16:54;;;;;;;18.83;10.77;;;;;;;-141.28;100.00;50844.50;5111862;28;20460;-77
2022/11/22 08:19:22;;;;;;;24.03;12.80;;;;;;;-141.28;100.00;51138.97;5111370;28;20498;-77
2022/11/22 08:21:50;;;;;;;20.67;12.03;;;;;;;-141.28;100.00;51166.47;5110870;28;20548;-74
2022/11/22 08:24:18;;;;;;;18.00;11.47;;;;;;;-141.28;100.00;51205.72;5098993;28;20444;-75
2022/11/22 08:26:46;;;;;;;18.47;12.50;;;;;;;-141.28;100.00;51174.31;5111445;28;20840;-77
2022/11/22 08:29:13;;;;;;;18.07;12.27;;;;;;;-141.28;100.00;51329.41;5111881;28;20537;-77
2022/11/22 08:31:41;;;;;;;28.20;15.07;;;;;;;-141.28;100.00;51150.75;5111337;28;20521;-75
2022/11/22 08:34:08;;;;;;;18.50;11.33;;;;;;;-141.28;100.00;51023.16;5111903;28;20453;-76
2022/11/22 08:36:35;;;;;;;15.80;10.40;;;;;;;-141.28;100.00;50901.44;5111279;28;20449;-76
2022/11/22 08:39:02;;;;;;;28.23;18.07;;;;;;;-141.28;100.00;50885.72;5112240;28;21039;-77
2022/11/22 08:41:31;;;;;;;19.10;11.57;;;;;;;-141.28;100.00;50891.63;5111385;28;20502;-76
2022/11/22 08:43:59;;;;;;;21.57;13.20;;;;;;;-141.28;100.00;50875.91;5111643;28;20509;-74
2022/11/22 08:46:27;;;;;;;17.43;11.97;;;;;;;-141.28;100.00;50936.75;5111074;28;20452;-78
2022/11/22 08:48:54;;;;;;;14.83;11.33;;;;;;;-141.28;100.00;50954.44;5111434;28;20492;-76
2022/11/22 08:51:21;;;;;;;17.20;10.80;;;;;;;-141.28;100.00;50950.50;5097821;28;20517;-76
2022/11/22 08:53:48;;;;;;;16.63;9.63;;;;;;;-141.28;100.00;50979.97;5111539;28;20985;-75
2022/11/22 08:56:16;;;;;;;61.17;27.33;;;;;;;-141.28;100.00;50897.50;5111587;28;20802;-75
2022/11/22 08:58:44;;;;;;;20.17;11.57;;;;;;;-141.28;100.00;50893.56;5111345;28;20448;-76
2022/11/22 09:01:13;;;;;;;9.47;6.53;;;;;;;-141.28;100.00;50871.97;5110942;28;20501;-78
2022/11/22 09:03:40;;;;;;;17.77;11.63;;;;;;;-141.28;100.00;50832.72;5111391;28;20448;-77
2022/11/22 09:06:08;;;;;;;33.73;16.90;;;;;;;-141.28;100.00;50652.13;5110177;28;20453;-75
2022/11/22 09:08:36;;;;;;;20.23;12.33;;;;;;;-141.28;100.00;50785.59;5110042;28;20495;-74
2022/11/22 09:11:04;;;;;;;16.77;10.73;;;;;;;-141.28;100.00;50789.53;5111494;28;20902;-76
2022/11/22 09:13:32;;;;;;;15.47;9.17;;;;;;;-141.28;100.00;50746.34;5111324;28;20436;-77
2022/11/22 09:16:05;;;;;;;11.87;7.50;;;;;;;-141.28;100.00;50781.69;5097441;28;21024;-77
2022/11/22 09:18:32;;;;;;;12.60;8.77;;;;;;;-141.28;100.00;50748.31;5111154;28;20460;-77
2022/11/22 09:20:59;;;;;;;10.73;7.73;;;;;;;-141.28;100.00;50722.78;5109693;28;20529;-76
2022/11/22 09:23:26;;;;;;;12.90;7.17;;;;;;;-141.28;100.00;50493.13;5110844;28;20502;-79
2022/11/22 09:25:57;;;;;;;9.17;7.00;;;;;;;-141.28;100.00;50573.59;5090588;28;20834;-78
2022/11/22 09:28:24;;;;;;;8.17;6.47;;;;;;;-141.28;100.00;50559.88;5093687;28;20575;-76
2022/11/22 09:30:58;;;;;;;6.57;5.20;;;;;;;-141.28;100.00;50722.78;5090530;28;20841;-75
2022/11/22 09:33:28;;;;;;;9.73;5.53;;;;;;;-141.28;100.00;50567.72;5110827;28;20440;-77
2022/11/22 09:36:00;;;;;;;9.90;5.13;;;;;;;-141.28;100.00;50597.16;5114950;28;20456;-78
2022/11/22 09:38:26;;;;;;;7.97;6.00;;;;;;;-141.28;100.00;50760.09;5114920;28;20558;-75
2022/11/22 09:40:54;;;;;;;10.87;7.40;;;;;;;-141.28;100.00;50795.41;5115161;28;21082;-79
2022/11/22 09:43:32;;;;;;;9.97;7.13;;;;;;;-141.28;100.00;50714.94;5115676;28;20456;-76
2022/11/22 09:46:15;;;;;;;8.20;6.43;;;;;;;-141.28;100.00;50659.97;5115445;28;20452;-75
2022/11/22 09:49:03;;;;;;;10.50;6.67;;;;;;;-141.28;100.00;50646.22;5115463;28;20503;-75
2022/11/22 09:51:36;;;;;;;11.40;7.17;;;;;;;-141.28;100.00;50475.47;5115100;28;20444;-78
2022/11/22 09:54:07;;;;;;;9.77;6.57;;;;;;;-141.28;100.00;50418.53;5118698;28;20453;-74
2022/11/22 09:56:34;;;;;;;8.10;6.03;;;;;;;-141.28;100.00;50377.31;5118410;28;20450;-75
2022/11/22 09:59:05;;;;;;;11.60;7.30;;;;;;;-141.28;100.00;50381.25;5121768;28;20460;-75
2022/11/22 10:01:39;;;;;;;11.67;7.53;;;;;;;-141.28;100.00;50410.69;5125918;28;20459;-76
2022/11/22 10:04:14;;;;;;;10.67;6.90;;;;;;;-141.28;100.00;50404.81;5127137;28;20472;-74
2022/11/22 10:06:43;;;;;;;10.40;7.23;;;;;;;-141.28;100.00;50361.63;5125161;28;20596;-75
2022/11/22 10:09:33;;;;;;;12.20;7.10;;;;;;;-141.28;100.00;50330.22;5115260;28;20537;-75
2022/11/22 10:12:07;;;;;;;11.33;7.37;;;;;;;-141.28;100.00;50294.88;5114811;28;20776;-78
2022/11/22 10:14:45;;;;;;;10.03;5.90;;;;;;;-141.28;100.00;50294.88;5114735;28;20967;-77
2022/11/22 10:17:26;;;;;;;7.90;6.07;;;;;;;-141.28;100.00;50328.25;5115005;28;20464;-75
2022/11/22 10:20:04;;;;;;;9.53;5.93;;;;;;;-141.28;100.00;50292.91;5114950;28;20505;-76
2022/11/22 10:22:33;;;;;;;7.23;5.87;;;;;;;-141.28;100.00;50259.56;5112645;28;20498;-76
2022/11/22 10:25:03;;;;;;;9.57;5.57;;;;;;;-141.28;100.00;50239.94;5114306;28;20449;-75
2022/11/22 10:27:32;;;;;;;9.33;6.47;;;;;;;-141.28;100.00;50208.53;5113669;28;20525;-76
2022/11/22 10:30:04;;;;;;;8.93;6.43;;;;;;;-141.28;100.00;50188.91;5114060;28;20550;-79
2022/11/22 10:32:38;;;;;;;12.13;6.00;;;;;;;-141.28;100.00;50196.75;5101493;28;20520;-75
2022/11/22 10:35:34;;;;;;;8.07;5.77;;;;;;;-141.28;100.00;50210.47;5116657;28;20479;-76
2022/11/22 10:38:16;;;;;;;8.60;5.23;;;;;;;-141.28;100.00;50184.97;5115762;28;20476;-76
2022/11/22 10:40:55;;;;;;;9.90;5.53;;;;;;;-141.28;100.00;50169.28;5103593;28;20488;-75
2022/11/22 10:43:31;;;;;;;7.53;5.20;;;;;;;-141.28;100.00;50177.13;5116815;28;20509;-77
2022/11/22 10:46:07;;;;;;;5.40;4.30;;;;;;;-141.28;100.00;50135.91;5113005;28;20448;-78
2022/11/22 10:48:41;;;;;;;6.50;3.97;;;;;;;-141.28;100.00;50104.50;5113426;28;20580;-79
2022/11/22 10:51:17;;;;;;;9.47;5.40;;;;;;;-141.28;100.00;50098.63;5114214;28;20974;-76
2022/11/22 10:53:54;;;;;;;13.73;7.37;;;;;;;-141.28;100.00;50037.78;5113360;28;20501;-77
2022/11/22 10:56:28;;;;;;;13.00;7.57;;;;;;;-141.28;100.00;50000.47;5113695;28;20444;-76
2022/11/22 10:59:12;;;;;;;21.30;11.83;;;;;;;-141.28;100.00;49939.63;5113404;28;20445;-78
2022/11/22 11:01:46;;;;;;;22.27;12.50;;;;;;;-141.28;100.00;49965.16;5113469;28;20502;-75
2022/11/22 11:04:15;;;;;;;24.20;13.23;;;;;;;-141.28;100.00;49953.38;5113668;28;20448;-76
2022/11/22 11:06:47;;;;;;;14.87;8.83;;;;;;;-141.28;100.00;49894.50;5113329;28;20441;-74
2022/11/22 11:09:20;;;;;;;14.20;8.27;;;;;;;-141.28;100.00;49863.09;5113252;28;20485;-74
2022/11/22 11:11:50;;;;;;;14.80;8.07;;;;;;;-141.28;100.00;49839.56;5113297;28;20441;-78
2022/11/22 11:14:26;;;;;;;19.23;10.90;;;;;;;-141.28;100.00;49804.22;5113755;28;20447;-75
2022/11/22 11:16:54;;;;;;;12.53;8.20;;;;;;;-141.28;100.00;49786.56;5100672;28;20469;-76
2022/11/22 11:19:24;;;;;;;16.43;7.97;;;;;;;-141.28;100.00;49812.06;5112974;28;20471;-74
2022/11/22 11:21:59;;;;;;;13.33;7.23;;;;;;;-141.28;100.00;49768.91;5112169;28;20998;-76
2022/11/22 11:24:29;;;;;;;12.10;7.50;;;;;;;-141.28;100.00;49761.06;5120819;28;20504;-74